You are listening to:
SAEZ ATIS - Buenos Aires, Argentina

SAEZ 250800Z 32005KT CAVOK 08/06 Q1013 NOSIG

If stream does not start automatically press the play button